Time;durP1;ratioP1;P1;durP2;ratioP2;P2;SDS_P1;SDS_P2;PMS_P1;PMS_P2;Temp;Humidity;BMP_temperature;BMP_pressure;BME280_temperature;BME280_humidity;BME280_pressure;Samples;Min_cycle;Max_cycle;Signal;HPM_P1;HPM_P2
2021/10/15 00:00:58;;;;;;;6.43;1.58;;;15.40;89.80;;;;;;5130948;28;20035;-72
2021/10/15 00:03:24;;;;;;;3.78;1.98;;;15.40;90.00;;;;;;5110300;28;20493;-72
2021/10/15 00:05:49;;;;;;;4.50;1.70;;;15.40;90.00;;;;;;5119818;28;20124;-72
2021/10/15 00:08:15;;;;;;;2.25;1.40;;;15.40;90.10;;;;;;5106657;28;20097;-72
2021/10/15 00:10:41;;;;;;;9.95;2.20;;;15.30;90.10;;;;;;5117066;28;20031;-72
2021/10/15 00:13:06;;;;;;;9.98;1.67;;;15.40;90.10;;;;;;5121438;28;20024;-72
2021/10/15 00:15:32;;;;;;;2.47;1.63;;;15.40;90.10;;;;;;5116793;28;20023;-72
2021/10/15 00:17:57;;;;;;;11.95;1.83;;;15.40;90.20;;;;;;5130386;28;20482;-72
2021/10/15 00:20:23;;;;;;;13.38;4.68;;;15.30;90.20;;;;;;5113617;28;20031;-71
2021/10/15 00:22:49;;;;;;;5.55;1.98;;;15.40;90.30;;;;;;5131714;27;20475;-71
2021/10/15 00:25:14;;;;;;;3.60;1.65;;;15.40;90.40;;;;;;5120181;27;20391;-71
2021/10/15 00:27:40;;;;;;;2.05;1.48;;;15.30;90.40;;;;;;5118471;27;20027;-72
2021/10/15 00:30:06;;;;;;;3.38;1.50;;;15.30;90.40;;;;;;5132976;27;20027;-72
2021/10/15 00:32:31;;;;;;;8.65;2.20;;;15.30;90.50;;;;;;5129149;27;20020;-71
2021/10/15 00:34:57;;;;;;;7.00;1.55;;;15.30;90.50;;;;;;5116891;27;20023;-72
2021/10/15 00:37:23;;;;;;;3.97;1.13;;;15.40;90.50;;;;;;5114831;27;20458;-72
2021/10/15 00:39:48;;;;;;;4.25;1.83;;;15.40;90.50;;;;;;5107175;28;20027;-71
2021/10/15 00:42:14;;;;;;;2.10;1.50;;;15.40;90.50;;;;;;5123712;27;20212;-71
2021/10/15 00:44:40;;;;;;;9.63;1.85;;;15.40;90.40;;;;;;5121475;27;20035;-71
2021/10/15 00:47:06;;;;;;;5.38;1.20;;;15.40;90.50;;;;;;5119721;27;20036;-71
2021/10/15 00:49:32;;;;;;;2.35;1.20;;;15.40;90.50;;;;;;5123171;27;20023;-71
2021/10/15 00:51:59;;;;;;;2.20;1.45;;;15.40;90.50;;;;;;5124422;27;20066;-71
2021/10/15 00:54:24;;;;;;;0.85;0.85;;;15.40;90.50;;;;;;5116445;27;20103;-71
2021/10/15 00:56:50;;;;;;;2.08;1.85;;;15.50;90.60;;;;;;5121231;27;20126;-71
2021/10/15 00:59:16;;;;;;;3.35;1.33;;;15.50;90.60;;;;;;5114150;27;20028;-71
2021/10/15 01:01:42;;;;;;;3.47;1.95;;;15.40;90.50;;;;;;5123763;27;20035;-71
2021/10/15 01:04:08;;;;;;;5.00;1.45;;;15.50;90.60;;;;;;5103892;27;20020;-71
2021/10/15 01:06:34;;;;;;;3.47;1.23;;;15.50;90.60;;;;;;5109511;27;20488;-71
2021/10/15 01:09:01;;;;;;;7.55;1.73;;;15.50;90.90;;;;;;5119302;27;20122;-71
2021/10/15 01:11:27;;;;;;;3.20;1.67;;;15.50;90.60;;;;;;5099528;27;20440;-71
2021/10/15 01:13:53;;;;;;;5.50;1.77;;;15.50;90.60;;;;;;5125559;27;20035;-71
2021/10/15 01:16:24;;;;;;;4.15;1.08;;;15.50;90.70;;;;;;5117564;27;20020;-71
2021/10/15 01:18:50;;;;;;;2.50;1.45;;;15.50;91.00;;;;;;5120043;27;20051;-71
2021/10/15 01:21:16;;;;;;;1.42;1.20;;;15.50;90.70;;;;;;5116316;27;20038;-71
2021/10/15 01:23:41;;;;;;;3.80;1.48;;;15.50;90.70;;;;;;5130226;27;20031;-71
2021/10/15 01:26:08;;;;;;;6.88;1.67;;;15.50;90.80;;;;;;5132012;27;20114;-71
2021/10/15 01:28:34;;;;;;;5.43;2.03;;;15.50;90.80;;;;;;5124642;27;20023;-71
2021/10/15 01:31:01;;;;;;;0.80;0.80;;;15.50;90.80;;;;;;5114424;27;20059;-71
2021/10/15 01:33:27;;;;;;;3.25;1.33;;;15.50;90.80;;;;;;5119597;27;20035;-71
2021/10/15 01:35:53;;;;;;;8.38;1.50;;;15.50;90.80;;;;;;5119900;27;20040;-71
2021/10/15 01:38:19;;;;;;;5.65;1.38;;;15.50;90.80;;;;;;5111448;27;20066;-71
2021/10/15 01:40:45;;;;;;;1.98;1.58;;;15.50;90.80;;;;;;5120225;27;20027;-71
2021/10/15 01:43:12;;;;;;;3.35;1.67;;;15.50;90.70;;;;;;5114947;27;20031;-71
2021/10/15 01:45:37;;;;;;;1.75;0.90;;;15.50;90.80;;;;;;5121039;27;20031;-71
2021/10/15 01:48:04;;;;;;;1.17;1.05;;;15.50;90.80;;;;;;5127293;27;20123;-71
2021/10/15 01:50:30;;;;;;;4.72;2.28;;;15.60;90.80;;;;;;5127222;27;20032;-71
2021/10/15 01:52:57;;;;;;;3.97;1.50;;;15.60;90.80;;;;;;5128925;27;20031;-71
2021/10/15 01:55:23;;;;;;;4.00;1.52;;;15.60;90.80;;;;;;5121877;27;20032;-71
2021/10/15 01:57:49;;;;;;;7.22;1.75;;;15.50;90.80;;;;;;5114120;27;20034;-71
2021/10/15 02:00:16;;;;;;;0.93;0.82;;;15.50;90.80;;;;;;5124793;27;20124;-71
2021/10/15 02:02:43;;;;;;;4.55;1.90;;;15.60;90.80;;;;;;5122143;27;20100;-71
2021/10/15 02:05:10;;;;;;;4.25;1.60;;;15.60;90.80;;;;;;5101064;27;20036;-71
2021/10/15 02:07:37;;;;;;;8.13;2.22;;;15.60;91.10;;;;;;5112311;27;20024;-71
2021/10/15 02:10:03;;;;;;;5.18;1.83;;;15.60;90.90;;;;;;5110267;28;20447;-71
2021/10/15 02:12:29;;;;;;;4.75;1.98;;;15.60;90.90;;;;;;5113561;27;20351;-71
2021/10/15 02:14:55;;;;;;;5.22;2.08;;;15.60;91.00;;;;;;5116039;27;20031;-71
2021/10/15 02:17:21;;;;;;;2.60;1.38;;;15.50;91.00;;;;;;5117712;27;20044;-71
2021/10/15 02:19:46;;;;;;;4.50;1.65;;;15.50;91.00;;;;;;5120166;27;20044;-71
2021/10/15 02:22:12;;;;;;;3.03;1.38;;;15.50;91.00;;;;;;5109983;27;20042;-71
2021/10/15 02:24:38;;;;;;;8.07;2.10;;;15.50;91.10;;;;;;5116927;27;20027;-71
2021/10/15 02:27:04;;;;;;;3.60;1.83;;;15.50;91.20;;;;;;5115496;27;20474;-71
2021/10/15 02:29:29;;;;;;;2.50;1.65;;;15.50;91.20;;;;;;5117613;27;20027;-71
2021/10/15 02:31:55;;;;;;;8.60;2.25;;;15.50;91.20;;;;;;5127982;27;20027;-71
2021/10/15 02:34:21;;;;;;;7.63;1.77;;;15.50;91.20;;;;;;5107469;27;20034;-71
2021/10/15 02:36:46;;;;;;;5.18;1.55;;;15.60;91.20;;;;;;5112302;27;20019;-71
2021/10/15 02:39:13;;;;;;;5.70;1.95;;;15.60;91.20;;;;;;5102310;27;20028;-71
2021/10/15 02:41:39;;;;;;;6.15;2.00;;;15.60;91.20;;;;;;5106013;27;20043;-71
2021/10/15 02:44:13;;;;;;;4.80;2.13;;;15.60;91.20;;;;;;5103977;27;20162;-71
2021/10/15 02:46:42;;;;;;;10.43;1.90;;;15.60;91.20;;;;;;5107736;27;20052;-71
2021/10/15 02:49:08;;;;;;;4.32;1.88;;;15.60;91.20;;;;;;5118938;27;20107;-71
2021/10/15 02:51:34;;;;;;;3.10;1.75;;;15.60;91.20;;;;;;5120145;27;20228;-71
2021/10/15 02:54:00;;;;;;;5.93;1.58;;;15.60;91.30;;;;;;5117466;27;20031;-71
2021/10/15 02:56:26;;;;;;;6.63;1.73;;;15.60;91.20;;;;;;5117300;27;20027;-71
2021/10/15 02:58:52;;;;;;;2.92;1.60;;;15.60;91.20;;;;;;5109516;27;20043;-73
2021/10/15 03:01:18;;;;;;;10.30;2.20;;;15.60;91.20;;;;;;5115081;27;20093;-72
2021/10/15 03:03:43;;;;;;;4.53;1.77;;;15.70;91.20;;;;;;5111549;27;20519;-72
2021/10/15 03:06:10;;;;;;;16.33;2.70;;;15.70;91.20;;;;;;5106084;27;20106;-72
2021/10/15 03:08:35;;;;;;;5.57;2.13;;;15.60;91.20;;;;;;5115860;27;20102;-72
2021/10/15 03:11:01;;;;;;;3.53;1.55;;;15.60;91.20;;;;;;5109383;27;20026;-72
2021/10/15 03:13:27;;;;;;;7.13;1.40;;;15.60;91.20;;;;;;5118651;27;20463;-71
2021/10/15 03:15:53;;;;;;;4.32;1.75;;;15.60;91.20;;;;;;5107458;27;20034;-72
2021/10/15 03:18:18;;;;;;;12.25;2.03;;;15.70;91.20;;;;;;5114294;27;20047;-71
2021/10/15 03:20:44;;;;;;;10.32;2.05;;;15.70;91.20;;;;;;5110270;27;20119;-71
2021/10/15 03:23:10;;;;;;;5.97;2.25;;;15.70;91.20;;;;;;5114746;27;20023;-72
2021/10/15 03:25:37;;;;;;;2.30;1.92;;;15.80;91.20;;;;;;5114118;27;20031;-71
2021/10/15 03:28:03;;;;;;;3.90;1.83;;;15.70;91.20;;;;;;5108791;27;20018;-71
2021/10/15 03:30:29;;;;;;;4.07;2.45;;;15.70;91.20;;;;;;5113942;27;20034;-72
2021/10/15 03:32:55;;;;;;;8.50;4.13;;;15.70;91.30;;;;;;5114061;27;20019;-71
2021/10/15 03:35:21;;;;;;;3.95;2.50;;;15.70;91.30;;;;;;5111730;28;20715;-72
2021/10/15 03:37:46;;;;;;;5.38;2.80;;;15.70;91.40;;;;;;5117947;27;20016;-72
2021/10/15 03:40:12;;;;;;;7.13;3.30;;;15.70;91.50;;;;;;5108999;27;20031;-72
2021/10/15 03:42:38;;;;;;;7.53;2.90;;;15.70;91.50;;;;;;5114800;28;20079;-71
2021/10/15 03:45:05;;;;;;;3.58;2.28;;;15.70;91.60;;;;;;5107878;28;20110;-71
2021/10/15 03:47:32;;;;;;;2.78;1.90;;;15.60;91.70;;;;;;5116791;28;20115;-72
2021/10/15 03:49:57;;;;;;;9.02;2.78;;;15.60;91.70;;;;;;5114387;28;20402;-71
2021/10/15 03:52:23;;;;;;;4.90;2.75;;;15.60;91.80;;;;;;5114055;28;20023;-71
2021/10/15 03:54:49;;;;;;;11.23;2.63;;;15.60;91.80;;;;;;5113157;28;20379;-71
2021/10/15 03:57:15;;;;;;;8.85;2.67;;;15.60;91.90;;;;;;5114581;28;20128;-71
2021/10/15 03:59:40;;;;;;;15.13;2.38;;;15.60;91.90;;;;;;5115800;28;20089;-71
2021/10/15 04:02:06;;;;;;;10.18;3.17;;;15.60;91.90;;;;;;5114373;28;20048;-71
2021/10/15 04:04:32;;;;;;;11.85;3.53;;;15.60;92.00;;;;;;5115133;27;20024;-71
2021/10/15 04:06:57;;;;;;;8.07;2.67;;;15.50;92.40;;;;;;5114938;27;20482;-71
2021/10/15 04:09:23;;;;;;;7.07;2.92;;;15.50;92.20;;;;;;5114755;28;20035;-71
2021/10/15 04:11:49;;;;;;;9.43;2.90;;;15.50;92.40;;;;;;5112625;28;20031;-71
2021/10/15 04:14:15;;;;;;;10.77;2.97;;;15.50;92.50;;;;;;5116019;27;20023;-71
2021/10/15 04:16:40;;;;;;;6.03;2.90;;;15.40;92.50;;;;;;5116853;27;20039;-71
2021/10/15 04:19:06;;;;;;;4.03;2.10;;;15.40;92.50;;;;;;5111802;28;20044;-71
2021/10/15 04:21:32;;;;;;;9.68;3.03;;;15.50;92.60;;;;;;5115666;27;20091;-71
2021/10/15 04:23:58;;;;;;;8.02;2.80;;;15.50;92.60;;;;;;5114650;27;20094;-71
2021/10/15 04:26:23;;;;;;;8.50;2.35;;;15.50;92.60;;;;;;5114081;27;20068;-71
2021/10/15 04:28:49;;;;;;;6.18;2.22;;;15.50;93.00;;;;;;5118816;27;20024;-71
2021/10/15 04:31:15;;;;;;;10.60;3.65;;;15.40;92.80;;;;;;5116089;27;20023;-71
2021/10/15 04:33:41;;;;;;;9.07;3.00;;;15.50;92.90;;;;;;5112529;27;20389;-71
2021/10/15 04:36:06;;;;;;;9.25;3.25;;;15.40;93.00;;;;;;5114333;27;20019;-71
2021/10/15 04:38:32;;;;;;;3.45;2.20;;;15.30;93.20;;;;;;5114994;27;20387;-71
2021/10/15 04:40:58;;;;;;;7.80;2.00;;;15.30;93.50;;;;;;5107626;27;20046;-71
2021/10/15 04:43:24;;;;;;;6.78;2.97;;;15.30;93.60;;;;;;5112648;27;20012;-71
2021/10/15 04:45:50;;;;;;;6.47;1.98;;;15.30;93.80;;;;;;5119636;27;20034;-71
2021/10/15 04:48:15;;;;;;;6.30;1.63;;;15.40;93.70;;;;;;5119975;27;20027;-71
2021/10/15 04:50:41;;;;;;;9.35;1.23;;;15.40;93.50;;;;;;5115647;27;20023;-71
2021/10/15 04:53:08;;;;;;;7.93;1.60;;;15.50;93.10;;;;;;5117417;27;20028;-71
2021/10/15 04:55:35;;;;;;;8.05;1.08;;;15.50;92.90;;;;;;5108441;27;20032;-71
2021/10/15 04:58:02;;;;;;;3.25;1.00;;;15.60;92.70;;;;;;5113835;27;20081;-71
2021/10/15 05:00:29;;;;;;;6.65;0.95;;;15.60;92.50;;;;;;5118413;27;20036;-71
2021/10/15 05:02:55;;;;;;;4.90;0.68;;;15.70;92.20;;;;;;5117696;27;20032;-71
2021/10/15 05:05:24;;;;;;;4.95;1.23;;;15.70;92.10;;;;;;5123198;27;20027;-72
2021/10/15 05:07:50;;;;;;;7.07;0.98;;;15.80;91.90;;;;;;5131597;27;20031;-71
2021/10/15 05:10:17;;;;;;;4.25;1.10;;;15.70;91.60;;;;;;5120858;27;20035;-71
2021/10/15 05:12:43;;;;;;;1.92;0.75;;;15.70;91.60;;;;;;5106335;27;20559;-71
2021/10/15 05:15:09;;;;;;;3.70;0.70;;;15.70;91.50;;;;;;5110255;27;20027;-71
2021/10/15 05:17:36;;;;;;;8.40;1.17;;;15.70;91.50;;;;;;5111958;27;20079;-70
2021/10/15 05:20:05;;;;;;;6.15;1.13;;;15.70;91.30;;;;;;5121318;27;21369;-70
2021/10/15 05:22:30;;;;;;;1.13;0.73;;;15.70;91.20;;;;;;5110536;27;20114;-71
2021/10/15 05:24:56;;;;;;;15.05;1.85;;;15.70;91.10;;;;;;5119259;27;20483;-74
2021/10/15 05:27:22;;;;;;;7.60;2.20;;;15.70;91.00;;;;;;5113229;27;20486;-70
2021/10/15 05:29:48;;;;;;;10.15;1.60;;;15.70;91.00;;;;;;5101749;27;20040;-70
2021/10/15 05:32:17;;;;;;;9.13;1.95;;;15.60;90.80;;;;;;5104523;28;20030;-72
2021/10/15 05:36:57;;;;;;;11.73;2.35;;;15.60;90.60;;;;;;5050663;28;20404;-70
2021/10/15 05:39:23;;;;;;;10.70;1.90;;;15.60;90.70;;;;;;5030747;28;20086;-71
2021/10/15 05:41:49;;;;;;;2.53;1.08;;;15.60;90.60;;;;;;5034268;28;20075;-70
2021/10/15 05:44:14;;;;;;;7.65;1.42;;;15.60;90.60;;;;;;5031400;28;20495;-71
2021/10/15 05:46:40;;;;;;;6.78;1.17;;;15.60;90.50;;;;;;5033893;28;20033;-71
2021/10/15 05:49:08;;;;;;;7.28;1.58;;;15.50;90.50;;;;;;5036337;28;20468;-71
2021/10/15 05:51:37;;;;;;;19.45;1.50;;;15.50;90.40;;;;;;5037277;28;20091;-70
2021/10/15 05:54:04;;;;;;;9.75;1.58;;;15.60;90.40;;;;;;5033234;28;20499;-71
2021/10/15 05:56:47;;;;;;;8.48;2.13;;;15.50;90.30;;;;;;5043546;28;20124;-72
2021/10/15 05:59:13;;;;;;;6.57;1.30;;;15.50;90.40;;;;;;5039112;28;20527;-71
2021/10/15 06:01:38;;;;;;;15.07;1.73;;;15.50;90.40;;;;;;5040166;28;20033;-71
2021/10/15 06:14:26;;;;;;;10.65;2.03;;;15.40;90.10;;;;;;5039293;28;20022;-70
2021/10/15 06:16:54;;;;;;;16.92;2.10;;;15.40;90.10;;;;;;5041279;28;20500;-72
2021/10/15 06:19:26;;;;;;;12.55;1.60;;;15.40;90.10;;;;;;5046355;28;20035;-73
2021/10/15 06:21:52;;;;;;;7.68;1.33;;;15.30;90.10;;;;;;5044355;28;20119;-71
2021/10/15 06:24:18;;;;;;;4.00;1.30;;;15.30;90.00;;;;;;5034855;28;20030;-71
2021/10/15 06:26:45;;;;;;;12.82;1.50;;;15.30;90.00;;;;;;5037089;28;20385;-71
2021/10/15 06:29:11;;;;;;;11.73;1.50;;;15.20;89.80;;;;;;5038400;28;20048;-71
2021/10/15 06:31:36;;;;;;;7.13;1.70;;;15.20;89.40;;;;;;5036301;28;20021;-72
2021/10/15 06:34:02;;;;;;;4.93;1.88;;;15.20;89.20;;;;;;5040330;28;20522;-72
2021/10/15 06:36:28;;;;;;;11.27;1.60;;;15.10;88.70;;;;;;5034713;28;20345;-72
2021/10/15 06:38:54;;;;;;;6.88;1.20;;;15.10;88.80;;;;;;5038341;28;20105;-72
2021/10/15 06:41:20;;;;;;;6.70;1.35;;;15.20;88.60;;;;;;5036947;28;20052;-71
2021/10/15 06:43:46;;;;;;;8.88;1.50;;;15.10;88.50;;;;;;5032977;28;20071;-72
2021/10/15 06:46:12;;;;;;;4.47;1.23;;;15.10;88.10;;;;;;5035691;28;20053;-72
2021/10/15 06:48:38;;;;;;;7.55;1.25;;;15.10;88.40;;;;;;5022694;28;20470;-71
2021/10/15 06:51:04;;;;;;;7.00;1.13;;;15.10;88.50;;;;;;5022574;28;20030;-71
2021/10/15 06:53:30;;;;;;;15.77;1.58;;;15.10;88.70;;;;;;5025783;28;20037;-71
2021/10/15 06:55:55;;;;;;;4.60;1.08;;;15.10;89.30;;;;;;5022610;28;20466;-72
2021/10/15 06:58:21;;;;;;;12.80;1.35;;;15.10;88.70;;;;;;5020916;28;20025;-71
2021/10/15 07:00:47;;;;;;;7.35;1.38;;;15.10;88.80;;;;;;5029985;28;20435;-71
2021/10/15 07:03:20;;;;;;;7.15;1.55;;;15.10;88.80;;;;;;5024153;28;20022;-71
2021/10/15 07:05:46;;;;;;;7.50;1.25;;;15.00;88.80;;;;;;5026656;28;20060;-71
2021/10/15 07:08:12;;;;;;;16.63;1.77;;;15.10;88.80;;;;;;5020815;28;20029;-71
2021/10/15 07:10:39;;;;;;;6.20;1.17;;;15.10;88.80;;;;;;5022783;28;20382;-72
2021/10/15 07:13:05;;;;;;;9.50;1.33;;;15.10;88.70;;;;;;5020631;28;20494;-71
2021/10/15 07:15:33;;;;;;;0.90;0.47;;;15.10;88.70;;;;;;5026431;28;20061;-73
2021/10/15 07:17:59;;;;;;;8.25;1.60;;;15.10;88.70;;;;;;5022299;28;20476;-71
2021/10/15 07:20:27;;;;;;;7.00;1.48;;;15.10;88.70;;;;;;5025442;28;20025;-71
2021/10/15 07:22:56;;;;;;;4.57;1.40;;;15.10;88.70;;;;;;5022535;28;20037;-71
2021/10/15 07:25:23;;;;;;;13.05;1.95;;;15.10;89.40;;;;;;5024380;28;20033;-71
2021/10/15 07:27:50;;;;;;;9.05;1.50;;;15.10;88.70;;;;;;5021090;28;20373;-71
2021/10/15 07:30:16;;;;;;;8.27;2.10;;;15.10;88.60;;;;;;5025828;28;20064;-71
2021/10/15 07:32:41;;;;;;;13.75;2.70;;;15.10;88.50;;;;;;5022795;28;20022;-72
2021/10/15 07:35:08;;;;;;;7.47;1.33;;;15.10;88.30;;;;;;5020015;28;20053;-71
2021/10/15 07:37:34;;;;;;;11.68;1.73;;;15.00;88.20;;;;;;5026611;28;20056;-71
2021/10/15 07:39:59;;;;;;;14.40;1.67;;;15.00;88.00;;;;;;5023093;28;20110;-71
2021/10/15 07:42:25;;;;;;;9.15;1.75;;;15.00;87.80;;;;;;5030700;28;20029;-70
2021/10/15 07:44:50;;;;;;;5.85;1.40;;;14.90;87.20;;;;;;5023917;28;20065;-71
2021/10/15 07:47:16;;;;;;;8.85;1.38;;;15.00;87.00;;;;;;5029853;28;20536;-70
2021/10/15 07:49:42;;;;;;;6.43;0.98;;;14.90;86.70;;;;;;5032073;28;20372;-70
2021/10/15 07:52:08;;;;;;;4.03;1.10;;;14.90;86.30;;;;;;5025652;28;20083;-70
2021/10/15 07:54:34;;;;;;;5.00;1.20;;;14.90;86.10;;;;;;5026507;28;20106;-70
2021/10/15 07:57:01;;;;;;;8.52;1.30;;;14.90;86.00;;;;;;5026503;28;20044;-70
2021/10/15 07:59:28;;;;;;;7.45;1.23;;;14.90;85.70;;;;;;5028092;28;20061;-70
2021/10/15 08:01:57;;;;;;;11.50;1.25;;;14.90;85.60;;;;;;5031232;28;20053;-71
2021/10/15 08:04:22;;;;;;;5.63;1.13;;;14.90;85.40;;;;;;5029126;28;20026;-71
2021/10/15 08:06:50;;;;;;;10.13;1.23;;;14.80;85.40;;;;;;5031763;28;20084;-71
2021/10/15 08:09:16;;;;;;;13.02;1.55;;;14.90;85.50;;;;;;5017272;28;20109;-70
2021/10/15 08:11:41;;;;;;;11.98;1.60;;;14.80;85.70;;;;;;5028875;28;20376;-71
2021/10/15 08:14:07;;;;;;;11.90;1.60;;;14.90;85.90;;;;;;5028085;28;20029;-71
2021/10/15 08:16:33;;;;;;;11.10;1.77;;;14.80;86.00;;;;;;5026456;28;20408;-70
2021/10/15 08:18:58;;;;;;;14.30;1.23;;;14.80;86.10;;;;;;5031272;28;20428;-71
2021/10/15 08:21:24;;;;;;;15.52;2.38;;;14.80;86.10;;;;;;5027036;28;20040;-71
2021/10/15 08:23:50;;;;;;;13.13;1.83;;;14.80;85.90;;;;;;5030519;28;20419;-70
2021/10/15 08:26:15;;;;;;;7.90;1.75;;;14.90;85.70;;;;;;5024127;28;20437;-71
2021/10/15 08:28:42;;;;;;;10.10;1.73;;;14.90;85.40;;;;;;5017466;28;20112;-71
2021/10/15 08:31:08;;;;;;;11.65;2.67;;;14.90;85.10;;;;;;5029903;28;20033;-70
2021/10/15 08:33:34;;;;;;;9.30;1.77;;;14.90;84.80;;;;;;5024057;28;20033;-71
2021/10/15 08:36:00;;;;;;;8.18;1.60;;;15.00;84.90;;;;;;5024451;28;20846;-70
2021/10/15 08:38:25;;;;;;;8.15;1.60;;;14.90;84.70;;;;;;5025481;28;20041;-70
2021/10/15 08:40:51;;;;;;;9.15;1.65;;;15.00;84.90;;;;;;5031879;28;20036;-70
2021/10/15 08:43:17;;;;;;;9.20;1.77;;;14.90;84.80;;;;;;5030654;28;20492;-70
2021/10/15 08:45:43;;;;;;;18.70;2.47;;;15.00;84.80;;;;;;5030138;28;20018;-71
2021/10/15 08:48:08;;;;;;;6.28;1.42;;;15.00;84.70;;;;;;5032123;28;20032;-70
2021/10/15 08:50:35;;;;;;;12.90;2.17;;;15.00;84.80;;;;;;5031347;28;20037;-70
2021/10/15 08:53:02;;;;;;;10.65;1.10;;;15.00;84.50;;;;;;5030951;28;20104;-70
2021/10/15 08:55:29;;;;;;;17.00;2.28;;;15.00;84.60;;;;;;5031215;28;20039;-70
2021/10/15 08:57:56;;;;;;;16.10;2.70;;;15.00;84.50;;;;;;5016984;28;20033;-70
2021/10/15 09:00:36;;;;;;;9.05;1.58;;;15.00;84.50;;;;;;5031308;28;20103;-70
2021/10/15 09:03:18;;;;;;;23.15;2.67;;;15.10;84.50;;;;;;5027308;28;20378;-71
2021/10/15 09:06:02;;;;;;;18.38;2.75;;;15.10;84.30;;;;;;5029265;28;20112;-71
2021/10/15 09:08:45;;;;;;;14.05;2.45;;;15.10;84.00;;;;;;5030937;28;20033;-72
2021/10/15 09:11:25;;;;;;;;;;;15.10;84.00;;;;;;5028768;28;20064;-74
2021/10/15 09:13:50;;;;;;;19.77;2.63;;;15.10;84.60;;;;;;5025150;28;19909;-76
2021/10/15 09:16:16;;;;;;;12.32;2.28;;;15.10;84.50;;;;;;5017350;28;20101;-74
2021/10/15 09:18:45;;;;;;;19.25;2.90;;;15.10;84.40;;;;;;5021595;28;20484;-76
2021/10/15 09:21:15;;;;;;;14.07;2.30;;;15.10;84.30;;;;;;5021039;28;20060;-76
2021/10/15 09:23:43;;;;;;;9.77;2.22;;;15.10;83.90;;;;;;5016006;28;20025;-76
2021/10/15 09:26:09;;;;;;;11.75;1.60;;;15.10;83.40;;;;;;5018085;28;20033;-76
2021/10/15 09:28:40;;;;;;;13.57;2.13;;;15.10;83.60;;;;;;5020447;28;20037;-76
2021/10/15 09:31:07;;;;;;;18.55;2.58;;;15.20;83.10;;;;;;5019977;28;20038;-76
2021/10/15 09:33:33;;;;;;;17.58;2.47;;;15.20;83.10;;;;;;5013892;28;20477;-76
2021/10/15 09:36:07;;;;;;;14.98;2.38;;;15.20;83.00;;;;;;5020675;28;20060;-72
2021/10/15 09:38:32;;;;;;;;;;;15.20;82.90;;;;;;5026104;28;20037;-74
2021/10/15 09:40:58;;;;;;;17.50;2.17;;;15.30;83.40;;;;;;5026463;28;19909;-71
2021/10/15 09:43:33;;;;;;;9.38;2.10;;;15.30;82.60;;;;;;5021532;28;20049;-71
2021/10/15 09:46:00;;;;;;;15.68;2.45;;;15.30;83.00;;;;;;5030310;28;20499;-71
2021/10/15 09:48:31;;;;;;;19.10;3.70;;;15.20;83.00;;;;;;5021664;28;20022;-76
2021/10/15 09:51:17;;;;;;;11.52;2.70;;;15.30;82.50;;;;;;5020529;28;20112;-75
2021/10/15 09:54:09;;;;;;;17.23;3.13;;;15.30;82.90;;;;;;5017908;28;20033;-75
2021/10/15 09:56:41;;;;;;;15.93;1.67;;;15.30;80.60;;;;;;5015790;28;20042;-73
2021/10/15 09:59:07;;;;;;;14.48;2.30;;;15.30;82.10;;;;;;5019054;28;20469;-74
2021/10/15 10:01:35;;;;;;;16.65;2.40;;;15.30;82.20;;;;;;5012209;28;20056;-74
2021/10/15 10:04:01;;;;;;;8.98;1.98;;;15.40;83.10;;;;;;5017931;28;20025;-75
2021/10/15 10:06:27;;;;;;;9.93;1.98;;;15.40;82.40;;;;;;5024719;28;20033;-75
2021/10/15 10:08:55;;;;;;;15.98;2.72;;;15.40;82.00;;;;;;5019396;28;20520;-75
2021/10/15 10:11:23;;;;;;;16.25;3.00;;;15.40;81.90;;;;;;5022901;28;20038;-75
2021/10/15 10:13:49;;;;;;;12.68;2.05;;;15.50;80.80;;;;;;5017016;28;20033;-75
2021/10/15 10:16:17;;;;;;;7.63;1.77;;;15.50;82.80;;;;;;5016414;28;20045;-75
2021/10/15 10:18:45;;;;;;;13.02;2.40;;;15.50;83.30;;;;;;5023798;28;20034;-76
2021/10/15 10:21:19;;;;;;;9.68;2.08;;;15.50;82.30;;;;;;5028533;28;20362;-75
2021/10/15 10:24:07;;;;;;;12.77;2.75;;;15.50;81.20;;;;;;5023575;28;20029;-76
2021/10/15 10:26:48;;;;;;;12.90;2.40;;;15.60;80.80;;;;;;5030768;28;20354;-72
2021/10/15 10:29:14;;;;;;;14.98;2.60;;;15.60;80.70;;;;;;5031240;28;20101;-71
2021/10/15 10:31:40;;;;;;;15.30;3.20;;;15.60;79.80;;;;;;5033693;28;20174;-71
2021/10/15 10:34:09;;;;;;;6.93;1.58;;;15.50;79.70;;;;;;5031082;28;20036;-71
2021/10/15 10:36:37;;;;;;;13.73;2.78;;;15.60;80.00;;;;;;5024021;28;20046;-82
2021/10/15 10:39:18;;;;;;;8.70;1.90;;;15.60;80.00;;;;;;5025758;28;20029;-72
2021/10/15 10:42:06;;;;;;;12.82;2.22;;;15.60;80.70;;;;;;5029562;28;20030;-73
2021/10/15 10:44:34;;;;;;;13.05;2.33;;;15.50;81.30;;;;;;5032674;28;20369;-71
2021/10/15 10:47:19;;;;;;;9.63;2.13;;;15.50;82.00;;;;;;5033264;28;20073;-71
2021/10/15 10:50:06;;;;;;;23.45;2.38;;;15.50;82.10;;;;;;5026446;28;20029;-71
2021/10/15 10:52:58;;;;;;;11.10;2.70;;;15.60;82.20;;;;;;5027531;28;20088;-71
2021/10/15 10:55:36;;;;;;;11.55;1.75;;;15.60;82.30;;;;;;5022259;28;20044;-71
2021/10/15 10:58:02;;;;;;;12.57;2.45;;;15.60;81.80;;;;;;5030671;28;20107;-72
2021/10/15 11:00:31;;;;;;;6.18;1.80;;;15.70;81.90;;;;;;5030570;28;20460;-71
2021/10/15 11:02:59;;;;;;;10.68;2.25;;;15.70;80.50;;;;;;5026396;28;20018;-72
2021/10/15 11:05:52;;;;;;;11.30;2.10;;;15.70;80.50;;;;;;5027361;28;20457;-71
2021/10/15 11:08:23;;;;;;;8.95;1.67;;;15.80;79.40;;;;;;5028874;28;20061;-72
2021/10/15 11:11:13;;;;;;;15.23;2.47;;;15.80;78.80;;;;;;5029226;28;20065;-72
2021/10/15 11:13:39;;;;;;;20.10;2.92;;;15.80;78.30;;;;;;5029731;28;20118;-71
2021/10/15 11:16:22;;;;;;;17.83;3.45;;;15.80;78.00;;;;;;5026322;28;20073;-72
2021/10/15 11:18:48;;;;;;;16.15;2.10;;;15.80;78.90;;;;;;5026195;28;20033;-71
2021/10/15 11:21:14;;;;;;;14.43;2.10;;;15.90;80.40;;;;;;5032316;28;20124;-72
2021/10/15 11:23:40;;;;;;;10.63;1.95;;;15.90;79.80;;;;;;5027542;28;20045;-71
2021/10/15 11:26:07;;;;;;;12.65;2.35;;;15.90;80.10;;;;;;5023961;28;20026;-71
2021/10/15 11:28:33;;;;;;;10.60;2.08;;;15.90;79.50;;;;;;5033035;28;20037;-77
2021/10/15 11:30:59;;;;;;;9.38;1.77;;;15.90;78.40;;;;;;5031531;28;20037;-75
2021/10/15 11:33:26;;;;;;;12.98;2.47;;;15.90;79.00;;;;;;5032950;28;20025;-74
2021/10/15 11:35:55;;;;;;;10.38;1.95;;;15.90;79.00;;;;;;5031555;28;20044;-73
2021/10/15 11:38:25;;;;;;;15.63;2.22;;;15.90;77.70;;;;;;5024435;28;20035;-72
2021/10/15 11:40:59;;;;;;;11.18;2.13;;;15.90;75.40;;;;;;5027914;28;20187;-71
2021/10/15 11:43:24;;;;;;;;;;;15.80;74.50;;;;;;5024442;28;20030;-71
2021/10/15 11:45:57;;;;;;;12.20;2.10;;;15.90;76.50;;;;;;5019564;28;19967;-71
2021/10/15 11:48:40;;;;;;;13.40;2.20;;;15.90;75.60;;;;;;5031673;28;20029;-71
2021/10/15 11:51:24;;;;;;;6.60;1.67;;;15.80;75.10;;;;;;5026500;28;20379;-70
2021/10/15 11:53:52;;;;;;;14.32;2.97;;;15.90;75.50;;;;;;5025078;28;20034;-70
2021/10/15 11:56:26;;;;;;;14.70;2.20;;;15.90;76.60;;;;;;5031856;28;20041;-70
2021/10/15 11:58:54;;;;;;;19.38;2.42;;;15.90;77.20;;;;;;5029892;28;20040;-71
2021/10/15 12:01:30;;;;;;;14.27;2.13;;;15.90;76.50;;;;;;5025709;28;20033;-70
2021/10/15 12:04:13;;;;;;;8.23;1.90;;;16.00;76.60;;;;;;5028420;28;20033;-70
2021/10/15 12:06:43;;;;;;;11.40;1.90;;;16.00;78.80;;;;;;5023778;28;20088;-72
2021/10/15 12:09:11;;;;;;;9.50;2.03;;;16.00;79.10;;;;;;5029854;28;20560;-71
2021/10/15 12:11:40;;;;;;;11.50;1.95;;;16.10;79.20;;;;;;5023634;28;20492;-71
2021/10/15 12:14:07;;;;;;;5.63;1.35;;;16.10;79.90;;;;;;5019323;28;20069;-70
2021/10/15 12:16:46;;;;;;;12.15;1.80;;;16.10;79.80;;;;;;5019715;28;20497;-71
2021/10/15 12:19:17;;;;;;;8.35;3.00;;;16.20;78.70;;;;;;5026466;28;20178;-73
2021/10/15 12:22:10;;;;;;;8.68;1.60;;;16.20;77.80;;;;;;5024619;28;20041;-74
2021/10/15 12:24:37;;;;;;;8.25;2.00;;;16.20;78.80;;;;;;5021268;28;20033;-74
2021/10/15 12:27:24;;;;;;;7.88;1.60;;;16.30;80.00;;;;;;5028337;28;20565;-71
2021/10/15 12:29:53;;;;;;;12.23;1.98;;;16.30;80.60;;;;;;5026953;28;20575;-72
2021/10/15 12:32:30;;;;;;;6.75;0.93;;;16.40;81.00;;;;;;5025773;28;20477;-71
2021/10/15 12:34:59;;;;;;;4.55;1.50;;;16.40;81.70;;;;;;5023689;28;20103;-71
2021/10/15 12:37:34;;;;;;;17.33;1.98;;;16.50;81.60;;;;;;5025632;28;20120;-76
2021/10/15 12:40:20;;;;;;;14.65;2.53;;;16.50;81.50;;;;;;5030403;28;20041;-71
2021/10/15 12:43:03;;;;;;;3.97;1.17;;;16.40;81.30;;;;;;5021270;28;20057;-71
2021/10/15 12:45:38;;;;;;;12.23;1.58;;;16.50;81.10;;;;;;5019089;28;20040;-71
2021/10/15 12:48:21;;;;;;;8.77;1.75;;;16.40;80.90;;;;;;5019664;28;20033;-71
2021/10/15 12:51:00;;;;;;;5.45;1.45;;;16.40;79.30;;;;;;5019101;28;20044;-71
2021/10/15 12:53:26;;;;;;;18.20;1.83;;;16.40;79.70;;;;;;5018943;28;20029;-71
2021/10/15 12:55:59;;;;;;;5.22;1.17;;;16.40;79.90;;;;;;5019192;28;20483;-71
2021/10/15 12:58:27;;;;;;;6.68;1.92;;;16.40;79.30;;;;;;5020032;28;20028;-71
2021/10/15 13:01:04;;;;;;;9.13;1.50;;;16.40;79.90;;;;;;5023102;28;20036;-71